createdAt,value
2023-06-17T00:00:22.567Z,97360.56
2023-06-17T00:02:52.340Z,97361.41
2023-06-17T00:05:21.232Z,97346.69
2023-06-17T00:07:50.175Z,97355.56
2023-06-17T00:10:19.292Z,97355.56
2023-06-17T00:12:50.123Z,97355.19
2023-06-17T00:15:20.178Z,97354.47
2023-06-17T00:17:49.048Z,97357.53
2023-06-17T00:20:17.937Z,97351.69
2023-06-17T00:22:48.785Z,97349.03
2023-06-17T00:25:18.045Z,97346.97
2023-06-17T00:27:46.944Z,97353.06
2023-06-17T00:30:15.968Z,97353.91
2023-06-17T00:32:46.820Z,97345.84
2023-06-17T00:35:15.805Z,97350.59
2023-06-17T00:37:44.437Z,97362.69
2023-06-17T00:40:14.260Z,97354.75
2023-06-17T00:42:42.898Z,97361.38
2023-06-17T00:45:11.839Z,97357.22
2023-06-17T00:47:43.963Z,97359.69
2023-06-17T00:50:14.431Z,97370.84
2023-06-17T00:52:46.029Z,97377.63
2023-06-17T00:55:15.263Z,97387.34
2023-06-17T00:57:48.072Z,97393.06
2023-06-17T01:00:17.779Z,97397.50
2023-06-17T01:02:48.421Z,97402.22
2023-06-17T01:05:18.858Z,97406.25
2023-06-17T01:08:00.111Z,97407.03
2023-06-17T01:10:53.258Z,97410.41
2023-06-17T01:13:24.960Z,97412.19
2023-06-17T01:15:54.663Z,97415.69
2023-06-17T01:18:26.718Z,97415.00
2023-06-17T01:20:57.697Z,97417.19
2023-06-17T01:23:33.847Z,97404.94
2023-06-17T01:26:03.520Z,97415.53
2023-06-17T01:28:33.170Z,97417.47
2023-06-17T01:31:03.209Z,97406.91
2023-06-17T01:33:32.469Z,97411.31
2023-06-17T01:36:10.657Z,97417.13
2023-06-17T01:38:49.187Z,97420.72
2023-06-17T01:41:45.475Z,97421.81
2023-06-17T01:44:15.866Z,97429.88
2023-06-17T01:46:45.801Z,97424.84
2023-06-17T01:49:14.511Z,97426.81
2023-06-17T01:51:43.468Z,97416.59
2023-06-17T01:54:12.338Z,97427.47
2023-06-17T01:56:41.226Z,97420.91
2023-06-17T01:59:10.017Z,97422.00
2023-06-17T02:01:38.982Z,97420.72
2023-06-17T02:04:07.721Z,97427.66
2023-06-17T02:06:39.454Z,97429.13
2023-06-17T02:09:08.976Z,97435.34
2023-06-17T02:11:37.629Z,97436.72
2023-06-17T02:14:07.077Z,97445.03
2023-06-17T02:16:35.724Z,97434.31
2023-06-17T02:19:05.207Z,97448.16
2023-06-17T02:21:34.247Z,97450.75
2023-06-17T02:24:02.945Z,97457.56
2023-06-17T02:26:34.672Z,97461.13
2023-06-17T02:29:05.728Z,97470.66
2023-06-17T02:31:35.705Z,97474.59
2023-06-17T02:34:04.862Z,97479.81
2023-06-17T02:36:33.968Z,97482.72
2023-06-17T02:39:02.725Z,97488.72
2023-06-17T02:41:31.724Z,97494.81
2023-06-17T02:44:00.508Z,97496.81
2023-06-17T02:46:29.700Z,97502.91
2023-06-17T02:48:58.831Z,97494.09
2023-06-17T02:51:29.886Z,97506.69
2023-06-17T02:53:58.743Z,97501.91
2023-06-17T02:56:28.605Z,97504.47
2023-06-17T02:58:57.749Z,97491.47
2023-06-17T03:01:26.657Z,97498.94
2023-06-17T03:03:57.220Z,97499.78
2023-06-17T03:06:26.907Z,97493.41
2023-06-17T03:08:55.759Z,97498.28
2023-06-17T03:11:25.010Z,97501.97
2023-06-17T03:13:54.038Z,97499.94
2023-06-17T03:16:36.605Z,97501.13
2023-06-17T03:19:05.739Z,97512.78
2023-06-17T03:21:42.659Z,97509.78
2023-06-17T03:24:12.329Z,97510.91
2023-06-17T03:26:41.160Z,97511.19
2023-06-17T03:29:10.977Z,97515.19
2023-06-17T03:31:40.188Z,97516.06
2023-06-17T03:34:10.408Z,97514.63
2023-06-17T03:36:42.022Z,97512.63
2023-06-17T03:39:10.899Z,97506.81
2023-06-17T03:41:40.646Z,97513.19
2023-06-17T03:44:10.564Z,97514.97
2023-06-17T03:46:40.356Z,97521.72
2023-06-17T03:49:09.864Z,97528.25
2023-06-17T03:51:39.190Z,97521.94
2023-06-17T03:54:08.575Z,97527.13
2023-06-17T03:56:39.755Z,97529.44
2023-06-17T03:59:08.906Z,97525.53
2023-06-17T04:01:37.742Z,97535.19
2023-06-17T04:04:06.815Z,97528.88
2023-06-17T04:06:37.351Z,97523.91
2023-06-17T04:09:07.330Z,97527.25
2023-06-17T04:11:36.456Z,97522.25
2023-06-17T04:14:05.197Z,97519.72
2023-06-17T04:16:37.522Z,97519.56
2023-06-17T04:19:06.540Z,97519.25
2023-06-17T04:21:36.624Z,97517.22
2023-06-17T04:24:05.879Z,97512.81
2023-06-17T04:26:34.578Z,97506.50
2023-06-17T04:29:04.234Z,97515.78
2023-06-17T04:31:37.480Z,97521.38
2023-06-17T04:34:07.382Z,97517.16
2023-06-17T04:36:36.460Z,97516.31
2023-06-17T04:39:07.027Z,97519.06
2023-06-17T04:41:37.036Z,97524.03
2023-06-17T04:44:06.248Z,97519.88
2023-06-17T04:46:35.343Z,97518.91
2023-06-17T04:49:04.584Z,97522.66
2023-06-17T04:51:39.185Z,97520.31
2023-06-17T04:54:08.560Z,97527.34
2023-06-17T04:56:38.493Z,97523.28
2023-06-17T04:59:07.490Z,97528.78
2023-06-17T05:01:36.299Z,97529.00
2023-06-17T05:04:05.366Z,97539.94
2023-06-17T05:06:34.792Z,97533.75
2023-06-17T05:09:04.583Z,97533.28
2023-06-17T05:11:33.661Z,97529.69
2023-06-17T05:14:02.537Z,97528.97
2023-06-17T05:16:31.389Z,97523.63
2023-06-17T05:19:01.884Z,97529.06
2023-06-17T05:21:31.658Z,97528.31
2023-06-17T05:24:03.611Z,97526.09
2023-06-17T05:26:33.108Z,97526.66
2023-06-17T05:29:01.785Z,97524.56
2023-06-17T05:31:30.911Z,97518.06
2023-06-17T05:34:01.083Z,97526.78
2023-06-17T05:36:30.063Z,97514.88
2023-06-17T05:38:58.753Z,97527.69
2023-06-17T05:41:28.586Z,97519.28
2023-06-17T05:43:57.420Z,97523.59
2023-06-17T05:46:26.637Z,97529.41
2023-06-17T05:48:55.441Z,97533.00
2023-06-17T05:51:24.985Z,97537.66
2023-06-17T05:53:55.648Z,97537.03
2023-06-17T05:56:24.636Z,97534.03
2023-06-17T05:58:53.937Z,97540.00
2023-06-17T06:01:34.741Z,97534.59
2023-06-17T06:04:04.819Z,97530.19
2023-06-17T06:06:34.913Z,97536.13
2023-06-17T06:09:06.209Z,97536.66
2023-06-17T06:11:35.421Z,97524.72
2023-06-17T06:14:04.082Z,97530.69
2023-06-17T06:16:33.031Z,97532.28
2023-06-17T06:19:01.793Z,97521.06
2023-06-17T06:21:30.833Z,97528.31
2023-06-17T06:24:02.086Z,97534.16
2023-06-17T06:26:36.330Z,97529.22
2023-06-17T06:29:06.859Z,97535.34
2023-06-17T06:31:36.993Z,97534.28
2023-06-17T06:34:05.915Z,97534.13
2023-06-17T06:36:34.617Z,97527.47
2023-06-17T06:39:03.612Z,97528.69
2023-06-17T06:41:32.516Z,97527.31
2023-06-17T06:44:19.503Z,97533.38
2023-06-17T06:46:49.281Z,97532.16
2023-06-17T06:49:18.025Z,97529.47
2023-06-17T06:51:47.427Z,97518.00
2023-06-17T06:54:16.521Z,97525.13
2023-06-17T06:56:45.166Z,97523.47
2023-06-17T06:59:14.309Z,97524.50
2023-06-17T07:01:43.018Z,97521.00
2023-06-17T07:04:13.156Z,97517.25
2023-06-17T07:06:42.269Z,97510.28
2023-06-17T07:09:15.804Z,97519.09
2023-06-17T07:11:44.640Z,97515.44
2023-06-17T07:14:14.407Z,97518.66
2023-06-17T07:16:43.877Z,97511.09
2023-06-17T07:19:13.597Z,97503.53
2023-06-17T07:21:42.683Z,97497.09
2023-06-17T07:24:11.875Z,97502.88
2023-06-17T07:26:40.901Z,97500.31
2023-06-17T07:29:09.868Z,97497.22
2023-06-17T07:31:39.153Z,97494.81
2023-06-17T07:34:08.023Z,97487.16
2023-06-17T07:36:36.848Z,97480.66
2023-06-17T07:39:05.667Z,97478.72
2023-06-17T07:41:34.550Z,97474.78
2023-06-17T07:44:03.198Z,97464.13
2023-06-17T07:46:34.085Z,97472.56
2023-06-17T07:49:02.968Z,97465.72
2023-06-17T07:51:32.724Z,97463.94
2023-06-17T07:54:01.660Z,97464.75
2023-06-17T07:56:30.671Z,97467.06
2023-06-17T07:59:01.139Z,97456.78
2023-06-17T08:01:29.882Z,97452.53
2023-06-17T08:03:59.219Z,97451.47
2023-06-17T08:06:27.938Z,97444.09
2023-06-17T08:08:56.936Z,97445.75
2023-06-17T08:11:25.777Z,97433.56
2023-06-17T08:13:54.595Z,97439.19
2023-06-17T08:16:23.368Z,97421.84
2023-06-17T08:18:52.446Z,97426.38
2023-06-17T08:21:21.007Z,97421.41
2023-06-17T08:23:53.352Z,97419.97
2023-06-17T08:26:22.348Z,97415.66
2023-06-17T08:28:50.908Z,97417.06
2023-06-17T08:31:19.902Z,97428.41
2023-06-17T08:33:48.643Z,97418.53
2023-06-17T08:36:17.897Z,97419.78
2023-06-17T08:38:46.541Z,97413.69
2023-06-17T08:41:15.356Z,97414.03
2023-06-17T08:43:46.449Z,97411.00
2023-06-17T08:46:16.723Z,97414.78
2023-06-17T08:48:48.406Z,97409.31
2023-06-17T08:51:17.204Z,97408.84
2023-06-17T08:53:47.300Z,97403.50
2023-06-17T08:56:16.278Z,97398.81
2023-06-17T08:58:45.919Z,97395.41
2023-06-17T09:01:15.294Z,97395.44
2023-06-17T09:03:44.775Z,97395.00
2023-06-17T09:06:22.285Z,97395.72
2023-06-17T09:08:55.574Z,97397.72
2023-06-17T09:11:33.207Z,97386.03
2023-06-17T09:14:04.110Z,97376.16
2023-06-17T09:16:37.867Z,97376.47
2023-06-17T09:19:10.973Z,97380.34
2023-06-17T09:21:40.202Z,97373.78
2023-06-17T09:24:13.492Z,97367.88
2023-06-17T09:26:45.050Z,97364.59
2023-06-17T09:29:15.423Z,97360.44
2023-06-17T09:31:51.925Z,97359.19
2023-06-17T09:34:22.504Z,97344.31
2023-06-17T09:37:02.927Z,97343.13
2023-06-17T09:39:35.577Z,97335.28
2023-06-17T09:42:12.532Z,97329.09
2023-06-17T09:44:42.250Z,97329.09
2023-06-17T09:47:11.522Z,97329.69
2023-06-17T09:49:40.615Z,97319.69
2023-06-17T09:52:12.852Z,97311.97
2023-06-17T09:54:43.342Z,97309.31
2023-06-17T09:57:16.064Z,97302.66
2023-06-17T09:59:48.089Z,97297.91
2023-06-17T10:02:17.028Z,97289.91
2023-06-17T10:04:46.425Z,97282.66
2023-06-17T10:07:16.732Z,97286.19
2023-06-17T10:09:45.766Z,97275.88
2023-06-17T10:12:15.248Z,97279.19
2023-06-17T10:14:45.228Z,97267.63
2023-06-17T10:17:14.673Z,97268.63
2023-06-17T10:19:46.106Z,97272.94
2023-06-17T10:22:17.936Z,97263.88
2023-06-17T10:24:47.318Z,97258.09
2023-06-17T10:27:16.148Z,97255.19
2023-06-17T10:29:48.101Z,97256.88
2023-06-17T10:32:25.902Z,97250.91
2023-06-17T10:35:21.932Z,97249.91
2023-06-17T10:37:52.303Z,97245.50
2023-06-17T10:40:27.045Z,97245.78
2023-06-17T10:43:18.987Z,97247.00
2023-06-17T10:45:53.618Z,97232.97
2023-06-17T10:48:34.571Z,97243.06
2023-06-17T10:51:05.683Z,97248.56
2023-06-17T10:53:39.561Z,97236.28
2023-06-17T10:56:14.023Z,97232.13
2023-06-17T10:58:49.174Z,97232.44
2023-06-17T11:01:18.984Z,97233.66
2023-06-17T11:03:47.840Z,97225.53
2023-06-17T11:06:16.830Z,97223.59
2023-06-17T11:08:45.562Z,97220.91
2023-06-17T11:11:18.856Z,97217.03
2023-06-17T11:13:53.902Z,97217.59
2023-06-17T11:16:22.871Z,97207.28
2023-06-17T11:18:52.158Z,97203.19
2023-06-17T11:21:21.164Z,97193.94
2023-06-17T11:23:49.923Z,97190.41
2023-06-17T11:26:19.838Z,97189.50
2023-06-17T11:28:49.456Z,97186.34
2023-06-17T11:31:18.376Z,97182.25
2023-06-17T11:33:48.060Z,97186.75
2023-06-17T11:36:19.462Z,97171.06
2023-06-17T11:38:50.928Z,97163.47
2023-06-17T11:41:19.868Z,97168.78
2023-06-17T11:43:49.806Z,97167.66
2023-06-17T11:46:26.661Z,97165.09
2023-06-17T11:48:56.635Z,97159.03
2023-06-17T11:51:25.822Z,97157.31
2023-06-17T11:53:54.649Z,97166.06
2023-06-17T11:56:24.383Z,97161.16
2023-06-17T11:58:54.947Z,97157.72
2023-06-17T12:01:28.170Z,97152.41
2023-06-17T12:04:00.464Z,97153.66
2023-06-17T12:06:29.966Z,97152.88
2023-06-17T12:09:05.991Z,97154.34
2023-06-17T12:11:37.903Z,97161.84
2023-06-17T12:14:10.180Z,97161.47
2023-06-17T12:16:41.648Z,97152.81
2023-06-17T12:19:22.889Z,97155.50
2023-06-17T12:21:52.700Z,97153.59
2023-06-17T12:24:22.227Z,97145.38
2023-06-17T12:26:51.486Z,97149.69
2023-06-17T12:29:25.875Z,97149.09
2023-06-17T12:31:55.743Z,97155.63
2023-06-17T12:34:24.537Z,97153.66
2023-06-17T12:36:53.464Z,97157.97
2023-06-17T12:39:22.652Z,97160.09
2023-06-17T12:41:51.776Z,97158.28
2023-06-17T12:44:20.421Z,97155.94
2023-06-17T12:46:49.854Z,97153.09
2023-06-17T12:49:18.608Z,97160.03
2023-06-17T12:51:47.938Z,97161.56
2023-06-17T12:54:16.802Z,97159.19
2023-06-17T12:56:45.976Z,97163.66
2023-06-17T12:59:14.713Z,97165.38
2023-06-17T13:01:43.942Z,97177.47
2023-06-17T13:04:12.717Z,97169.84
2023-06-17T13:06:41.848Z,97175.25
2023-06-17T13:09:11.986Z,97166.22
2023-06-17T13:11:44.359Z,97174.19
2023-06-17T13:14:13.751Z,97167.78
2023-06-17T13:16:43.087Z,97167.44
2023-06-17T13:19:12.982Z,97177.63
2023-06-17T13:21:44.080Z,97171.75
2023-06-17T13:24:14.135Z,97181.19
2023-06-17T13:26:44.237Z,97185.13
2023-06-17T13:29:13.718Z,97186.09
2023-06-17T13:31:42.472Z,97180.31
2023-06-17T13:34:11.332Z,97182.41
2023-06-17T13:36:44.058Z,97179.13
2023-06-17T13:39:13.291Z,97186.34
2023-06-17T13:41:46.723Z,97192.16
2023-06-17T13:44:15.823Z,97181.44
2023-06-17T13:46:44.783Z,97188.50
2023-06-17T13:49:13.792Z,97192.03
2023-06-17T13:51:42.645Z,97192.66
2023-06-17T13:54:11.542Z,97192.47
2023-06-17T13:56:40.192Z,97195.31
2023-06-17T13:59:10.227Z,97194.56
2023-06-17T14:01:38.865Z,97197.38
2023-06-17T14:04:08.109Z,97193.81
2023-06-17T14:06:38.173Z,97196.66
2023-06-17T14:09:08.085Z,97196.47
2023-06-17T14:11:39.862Z,97198.84
2023-06-17T14:14:09.410Z,97197.81
2023-06-17T14:16:38.047Z,97200.75
2023-06-17T14:19:06.955Z,97205.25
2023-06-17T14:21:37.471Z,97210.78
2023-06-17T14:24:11.785Z,97211.72
2023-06-17T14:26:42.648Z,97220.59
2023-06-17T14:29:12.726Z,97212.16
2023-06-17T14:31:41.690Z,97216.84
2023-06-17T14:34:10.394Z,97216.94
2023-06-17T14:36:39.416Z,97219.00
2023-06-17T14:39:08.103Z,97227.16
2023-06-17T14:41:36.978Z,97225.47
2023-06-17T14:44:05.981Z,97227.03
2023-06-17T14:46:35.045Z,97236.00
2023-06-17T14:49:03.765Z,97229.91
2023-06-17T14:51:33.436Z,97231.72
2023-06-17T14:54:02.002Z,97243.91
2023-06-17T14:56:32.586Z,97238.94
2023-06-17T14:59:03.775Z,97252.25
2023-06-17T15:01:34.371Z,97256.88
2023-06-17T15:04:04.810Z,97247.91
2023-06-17T15:06:33.858Z,97244.97
2023-06-17T15:09:27.607Z,97255.84
2023-06-17T15:11:58.383Z,97264.59
2023-06-17T15:14:33.010Z,97257.59
2023-06-17T15:17:02.301Z,97264.31
2023-06-17T15:19:32.624Z,97267.19
2023-06-17T15:22:01.676Z,97273.22
2023-06-17T15:24:30.395Z,97281.19
2023-06-17T15:26:59.434Z,97278.34
2023-06-17T15:29:28.748Z,97278.34
2023-06-17T15:31:57.592Z,97285.84
2023-06-17T15:34:26.368Z,97285.66
2023-06-17T15:36:55.327Z,97289.16
2023-06-17T15:39:27.166Z,97291.81
2023-06-17T15:41:56.649Z,97292.94
2023-06-17T15:44:25.387Z,97298.81
2023-06-17T15:46:54.566Z,97301.31
2023-06-17T15:49:23.217Z,97294.97
2023-06-17T15:51:52.188Z,97301.81
2023-06-17T15:54:21.112Z,97313.56
2023-06-17T15:56:50.039Z,97307.25
2023-06-17T15:59:18.754Z,97309.81
2023-06-17T16:01:47.749Z,97321.63
2023-06-17T16:04:37.715Z,97318.09
2023-06-17T16:07:16.381Z,97325.91
2023-06-17T16:09:51.829Z,97327.97
2023-06-17T16:12:20.923Z,97332.09
2023-06-17T16:14:49.561Z,97332.91
2023-06-17T16:17:18.750Z,97334.91
2023-06-17T16:19:47.409Z,97327.78
2023-06-17T16:22:16.305Z,97330.25
2023-06-17T16:24:45.470Z,97344.88
2023-06-17T16:27:14.543Z,97342.88
2023-06-17T16:29:43.847Z,97345.53
2023-06-17T16:32:12.941Z,97341.72
2023-06-17T16:34:41.764Z,97354.81
2023-06-17T16:37:11.049Z,97356.16
2023-06-17T16:39:40.777Z,97353.66
2023-06-17T16:42:09.825Z,97353.16
2023-06-17T16:44:39.555Z,97359.47
2023-06-17T16:47:08.851Z,97350.34
2023-06-17T16:49:37.613Z,97349.50
2023-06-17T16:52:06.781Z,97348.22
2023-06-17T16:54:35.529Z,97358.81
2023-06-17T16:57:04.703Z,97348.84
2023-06-17T16:59:33.359Z,97358.81
2023-06-17T17:02:02.433Z,97347.69
2023-06-17T17:04:31.224Z,97359.97
2023-06-17T17:07:00.704Z,97358.16
2023-06-17T17:09:29.440Z,97355.13
2023-06-17T17:11:58.722Z,97364.06
2023-06-17T17:14:27.569Z,97361.72
2023-06-17T17:16:57.502Z,97370.03
2023-06-17T17:19:27.053Z,97375.00
2023-06-17T17:21:56.095Z,97373.81
2023-06-17T17:24:24.830Z,97371.84
2023-06-17T17:26:53.856Z,97375.16
2023-06-17T17:29:23.480Z,97374.00
2023-06-17T17:31:52.385Z,97381.16
2023-06-17T17:34:21.049Z,97379.00
2023-06-17T17:36:50.002Z,97382.66
2023-06-17T17:39:18.845Z,97380.97
2023-06-17T17:41:47.682Z,97382.97
2023-06-17T17:44:16.494Z,97385.44
2023-06-17T17:46:45.542Z,97385.44
2023-06-17T17:49:14.255Z,97382.63
2023-06-17T17:51:43.135Z,97377.78
2023-06-17T17:54:11.916Z,97384.91
2023-06-17T17:56:40.817Z,97379.91
2023-06-17T17:59:09.542Z,97380.75
2023-06-17T18:01:38.585Z,97387.22
2023-06-17T18:04:07.608Z,97383.59
2023-06-17T18:06:36.584Z,97382.75
2023-06-17T18:09:05.578Z,97378.09
2023-06-17T18:11:34.493Z,97375.91
2023-06-17T18:14:03.478Z,97376.25
2023-06-17T18:16:32.438Z,97371.63
2023-06-17T18:19:01.181Z,97376.78
2023-06-17T18:21:30.702Z,97384.06
2023-06-17T18:23:59.471Z,97380.22
2023-06-17T18:26:32.293Z,97380.94
2023-06-17T18:29:02.209Z,97367.19
2023-06-17T18:31:31.221Z,97372.50
2023-06-17T18:33:59.970Z,97375.50
2023-06-17T18:36:28.928Z,97377.50
2023-06-17T18:38:57.648Z,97380.28
2023-06-17T18:43:56.332Z,97387.41
2023-06-17T18:46:25.334Z,97380.75
2023-06-17T18:48:54.204Z,97376.16
2023-06-17T18:51:23.131Z,97376.28
2023-06-17T18:53:51.722Z,97378.03
2023-06-17T18:56:20.628Z,97381.91
2023-06-17T18:58:49.497Z,97384.91
2023-06-17T19:01:18.878Z,97385.72
2023-06-17T19:03:47.981Z,97383.72
2023-06-17T19:06:17.005Z,97378.03
2023-06-17T19:08:45.851Z,97375.72
2023-06-17T19:11:17.308Z,97370.41
2023-06-17T19:13:46.492Z,97375.72
2023-06-17T19:16:15.520Z,97382.00
2023-06-17T19:18:44.725Z,97380.19
2023-06-17T19:21:14.050Z,97384.44
2023-06-17T19:23:42.930Z,97382.63
2023-06-17T19:26:11.686Z,97389.47
2023-06-17T19:28:40.515Z,97381.78
2023-06-17T19:31:09.274Z,97389.50
2023-06-17T19:33:38.223Z,97388.31
2023-06-17T19:36:07.715Z,97399.25
2023-06-17T19:38:36.923Z,97395.41
2023-06-17T19:41:05.714Z,97398.72
2023-06-17T19:43:37.580Z,97397.06
2023-06-17T19:46:06.621Z,97403.56
2023-06-17T19:48:35.363Z,97400.19
2023-06-17T19:51:04.226Z,97393.94
2023-06-17T19:53:32.987Z,97397.31
2023-06-17T19:56:02.006Z,97392.25
2023-06-17T19:58:30.678Z,97390.56
2023-06-17T20:01:03.892Z,97390.00
2023-06-17T20:03:33.302Z,97396.22
2023-06-17T20:06:03.026Z,97395.19
2023-06-17T20:08:32.993Z,97396.22
2023-06-17T20:11:02.280Z,97395.63
2023-06-17T20:13:31.531Z,97400.16
2023-06-17T20:16:00.916Z,97396.81
2023-06-17T20:18:31.378Z,97395.22
2023-06-17T20:21:02.038Z,97400.38
2023-06-17T20:23:33.063Z,97391.22
2023-06-17T20:26:04.417Z,97392.38
2023-06-17T20:28:36.011Z,97383.50
2023-06-17T20:31:06.288Z,97390.38
2023-06-17T20:33:37.086Z,97392.75
2023-06-17T20:36:08.259Z,97390.38
2023-06-17T20:38:38.490Z,97387.38
2023-06-17T20:41:08.886Z,97389.91
2023-06-17T20:43:39.124Z,97390.03
2023-06-17T20:46:09.488Z,97381.94
2023-06-17T20:48:39.667Z,97384.88
2023-06-17T20:51:11.343Z,97386.47
2023-06-17T20:53:41.732Z,97389.59
2023-06-17T20:56:12.343Z,97385.84
2023-06-17T20:58:43.253Z,97381.41
2023-06-17T21:01:13.570Z,97390.00
2023-06-17T21:03:44.011Z,97389.66
2023-06-17T21:06:14.850Z,97401.69
2023-06-17T21:08:45.547Z,97392.75
2023-06-17T21:11:16.286Z,97394.50
2023-06-17T21:13:46.521Z,97390.78
2023-06-17T21:16:17.295Z,97392.28
2023-06-17T21:18:48.074Z,97391.31
2023-06-17T21:21:18.866Z,97393.44
2023-06-17T21:23:49.264Z,97387.78
2023-06-17T21:26:19.494Z,97390.56
2023-06-17T21:28:50.051Z,97388.59
2023-06-17T21:31:20.865Z,97386.09
2023-06-17T21:33:52.878Z,97388.94
2023-06-17T21:36:23.620Z,97383.94
2023-06-17T21:38:53.911Z,97384.34
2023-06-17T21:41:24.685Z,97373.59
2023-06-17T21:43:55.782Z,97379.44
2023-06-17T21:46:29.122Z,97377.63
2023-06-17T21:49:00.021Z,97383.16
2023-06-17T21:51:30.333Z,97380.53
2023-06-17T21:54:01.012Z,97380.63
2023-06-17T21:56:31.737Z,97389.09
2023-06-17T21:59:02.091Z,97401.19
2023-06-17T22:01:32.831Z,97408.44
2023-06-17T22:04:03.567Z,97405.09
2023-06-17T22:06:34.256Z,97389.94
2023-06-17T22:09:04.484Z,97395.22
2023-06-17T22:11:35.298Z,97392.28
2023-06-17T22:14:05.455Z,97400.22
2023-06-17T22:16:36.882Z,97395.88
2023-06-17T22:19:07.280Z,97394.53
2023-06-17T22:21:37.663Z,97393.84
2023-06-17T22:24:07.928Z,97393.16
2023-06-17T22:26:38.336Z,97390.75
2023-06-17T22:29:09.404Z,97392.78
2023-06-17T22:31:40.166Z,97405.53
2023-06-17T22:34:12.918Z,97398.88
2023-06-17T22:36:43.525Z,97400.84
2023-06-17T22:39:13.832Z,97401.44
2023-06-17T22:41:43.815Z,97401.63
2023-06-17T22:44:14.157Z,97396.69
2023-06-17T22:46:45.392Z,97400.78
2023-06-17T22:49:16.176Z,97394.66
2023-06-17T22:51:46.834Z,97400.63
2023-06-17T22:54:16.805Z,97399.66
2023-06-17T22:56:47.467Z,97402.00
2023-06-17T22:59:17.845Z,97400.63
2023-06-17T23:01:48.627Z,97402.97
2023-06-17T23:04:19.199Z,97409.09
2023-06-17T23:06:49.235Z,97409.91
2023-06-17T23:09:20.271Z,97406.06
2023-06-17T23:11:51.572Z,97402.28
2023-06-17T23:14:22.243Z,97405.59
2023-06-17T23:16:54.194Z,97400.19
2023-06-17T23:19:24.824Z,97399.94
2023-06-17T23:21:56.345Z,97398.13
2023-06-17T23:24:26.630Z,97405.09
2023-06-17T23:26:56.896Z,97409.25
2023-06-17T23:29:27.687Z,97400.47
2023-06-17T23:31:58.058Z,97405.72
2023-06-17T23:34:28.347Z,97411.50
2023-06-17T23:36:59.350Z,97409.81
2023-06-17T23:39:29.140Z,97404.38
2023-06-17T23:41:59.877Z,97409.06
2023-06-17T23:44:29.880Z,97407.09
2023-06-17T23:47:00.556Z,97401.31
2023-06-17T23:49:30.939Z,97407.28
2023-06-17T23:52:01.963Z,97409.94
2023-06-17T23:54:31.605Z,97409.53
2023-06-17T23:57:02.158Z,97416.78
2023-06-17T23:59:33.502Z,97417.34
